sensor_id;sensor_type;location;lat;lon;timestamp;P1;durP1;ratioP1;P2;durP2;ratioP2
28822;SDS011;15961;54.678;9.110;2024-03-02T00:01:53;49.35;;;20.38;;
28822;SDS011;15961;54.678;9.110;2024-03-02T00:04:39;52.10;;;20.60;;
28822;SDS011;15961;54.678;9.110;2024-03-02T00:07:25;54.22;;;22.23;;
28822;SDS011;15961;54.678;9.110;2024-03-02T00:10:11;51.55;;;21.70;;
28822;SDS011;15961;54.678;9.110;2024-03-02T00:12:57;50.90;;;18.88;;
28822;SDS011;15961;54.678;9.110;2024-03-02T00:15:47;52.33;;;21.90;;
28822;SDS011;15961;54.678;9.110;2024-03-02T00:18:35;54.67;;;21.63;;
28822;SDS011;15961;54.678;9.110;2024-03-02T00:21:24;49.60;;;20.67;;
28822;SDS011;15961;54.678;9.110;2024-03-02T00:24:18;57.83;;;21.95;;
28822;SDS011;15961;54.678;9.110;2024-03-02T00:27:06;45.83;;;20.15;;
28822;SDS011;15961;54.678;9.110;2024-03-02T00:29:52;61.25;;;21.45;;
28822;SDS011;15961;54.678;9.110;2024-03-02T00:32:38;56.70;;;22.35;;
28822;SDS011;15961;54.678;9.110;2024-03-02T00:35:24;51.92;;;19.88;;
28822;SDS011;15961;54.678;9.110;2024-03-02T00:38:09;58.75;;;22.50;;
28822;SDS011;15961;54.678;9.110;2024-03-02T00:40:56;59.15;;;23.85;;
28822;SDS011;15961;54.678;9.110;2024-03-02T00:46:36;53.83;;;21.98;;
28822;SDS011;15961;54.678;9.110;2024-03-02T00:49:23;52.92;;;22.67;;
28822;SDS011;15961;54.678;9.110;2024-03-02T00:52:09;49.95;;;19.60;;
28822;SDS011;15961;54.678;9.110;2024-03-02T00:54:57;50.88;;;19.45;;
28822;SDS011;15961;54.678;9.110;2024-03-02T00:57:42;46.55;;;18.65;;
28822;SDS011;15961;54.678;9.110;2024-03-02T01:00:29;47.20;;;20.00;;
28822;SDS011;15961;54.678;9.110;2024-03-02T01:03:15;53.42;;;21.55;;
28822;SDS011;15961;54.678;9.110;2024-03-02T01:06:00;48.83;;;18.20;;
28822;SDS011;15961;54.678;9.110;2024-03-02T01:08:46;51.78;;;22.10;;
28822;SDS011;15961;54.678;9.110;2024-03-02T01:11:36;51.72;;;18.85;;
28822;SDS011;15961;54.678;9.110;2024-03-02T01:14:21;45.85;;;20.02;;
28822;SDS011;15961;54.678;9.110;2024-03-02T01:17:07;52.90;;;21.02;;
28822;SDS011;15961;54.678;9.110;2024-03-02T01:19:53;46.67;;;20.70;;
28822;SDS011;15961;54.678;9.110;2024-03-02T01:22:38;59.33;;;20.73;;
28822;SDS011;15961;54.678;9.110;2024-03-02T01:25:24;48.45;;;20.67;;
28822;SDS011;15961;54.678;9.110;2024-03-02T01:28:10;52.00;;;21.40;;
28822;SDS011;15961;54.678;9.110;2024-03-02T01:30:56;52.00;;;17.95;;
28822;SDS011;15961;54.678;9.110;2024-03-02T01:33:41;44.33;;;19.58;;
28822;SDS011;15961;54.678;9.110;2024-03-02T01:36:27;54.08;;;21.10;;
28822;SDS011;15961;54.678;9.110;2024-03-02T01:39:13;43.33;;;18.80;;
28822;SDS011;15961;54.678;9.110;2024-03-02T01:41:59;50.70;;;20.25;;
28822;SDS011;15961;54.678;9.110;2024-03-02T01:44:44;60.35;;;22.90;;
28822;SDS011;15961;54.678;9.110;2024-03-02T01:47:30;56.42;;;21.73;;
28822;SDS011;15961;54.678;9.110;2024-03-02T01:50:16;59.35;;;21.83;;
28822;SDS011;15961;54.678;9.110;2024-03-02T01:53:01;56.63;;;20.42;;
28822;SDS011;15961;54.678;9.110;2024-03-02T01:55:50;51.25;;;20.60;;
28822;SDS011;15961;54.678;9.110;2024-03-02T01:58:36;56.10;;;20.80;;
28822;SDS011;15961;54.678;9.110;2024-03-02T02:01:21;44.75;;;17.48;;
28822;SDS011;15961;54.678;9.110;2024-03-02T02:04:07;52.83;;;21.50;;
28822;SDS011;15961;54.678;9.110;2024-03-02T02:06:53;52.65;;;20.88;;
28822;SDS011;15961;54.678;9.110;2024-03-02T02:09:39;52.67;;;17.77;;
28822;SDS011;15961;54.678;9.110;2024-03-02T02:12:26;50.20;;;18.98;;
28822;SDS011;15961;54.678;9.110;2024-03-02T02:15:28;50.60;;;19.88;;
28822;SDS011;15961;54.678;9.110;2024-03-02T02:18:14;48.58;;;20.25;;
28822;SDS011;15961;54.678;9.110;2024-03-02T02:21:00;48.15;;;18.42;;
28822;SDS011;15961;54.678;9.110;2024-03-02T02:23:46;56.53;;;22.50;;
28822;SDS011;15961;54.678;9.110;2024-03-02T02:26:33;63.42;;;20.73;;
28822;SDS011;15961;54.678;9.110;2024-03-02T02:29:19;51.17;;;21.67;;
28822;SDS011;15961;54.678;9.110;2024-03-02T02:32:05;52.60;;;21.15;;
28822;SDS011;15961;54.678;9.110;2024-03-02T02:38:29;60.90;;;22.05;;
28822;SDS011;15961;54.678;9.110;2024-03-02T02:41:14;58.95;;;21.17;;
28822;SDS011;15961;54.678;9.110;2024-03-02T02:44:00;55.42;;;22.52;;
28822;SDS011;15961;54.678;9.110;2024-03-02T02:46:46;58.22;;;20.95;;
28822;SDS011;15961;54.678;9.110;2024-03-02T02:49:31;48.17;;;21.38;;
28822;SDS011;15961;54.678;9.110;2024-03-02T02:52:17;57.70;;;22.13;;
28822;SDS011;15961;54.678;9.110;2024-03-02T02:55:04;56.75;;;22.10;;
28822;SDS011;15961;54.678;9.110;2024-03-02T02:57:50;55.85;;;20.73;;
28822;SDS011;15961;54.678;9.110;2024-03-02T03:00:35;59.88;;;21.10;;
28822;SDS011;15961;54.678;9.110;2024-03-02T03:03:21;58.13;;;21.67;;
28822;SDS011;15961;54.678;9.110;2024-03-02T03:06:07;58.95;;;19.83;;
28822;SDS011;15961;54.678;9.110;2024-03-02T03:08:52;60.90;;;19.45;;
28822;SDS011;15961;54.678;9.110;2024-03-02T03:11:38;52.72;;;21.23;;
28822;SDS011;15961;54.678;9.110;2024-03-02T03:14:24;49.80;;;21.13;;
28822;SDS011;15961;54.678;9.110;2024-03-02T03:17:09;54.33;;;22.02;;
28822;SDS011;15961;54.678;9.110;2024-03-02T03:19:55;59.20;;;24.23;;
28822;SDS011;15961;54.678;9.110;2024-03-02T03:22:40;60.85;;;21.88;;
28822;SDS011;15961;54.678;9.110;2024-03-02T03:25:26;56.75;;;21.92;;
28822;SDS011;15961;54.678;9.110;2024-03-02T03:28:12;49.53;;;21.27;;
28822;SDS011;15961;54.678;9.110;2024-03-02T03:30:57;51.65;;;20.98;;
28822;SDS011;15961;54.678;9.110;2024-03-02T03:33:43;64.07;;;24.05;;
28822;SDS011;15961;54.678;9.110;2024-03-02T03:36:29;46.78;;;20.25;;
28822;SDS011;15961;54.678;9.110;2024-03-02T03:39:14;58.95;;;21.95;;
28822;SDS011;15961;54.678;9.110;2024-03-02T03:42:00;63.47;;;24.17;;
28822;SDS011;15961;54.678;9.110;2024-03-02T03:44:45;54.70;;;20.17;;
28822;SDS011;15961;54.678;9.110;2024-03-02T03:47:31;55.13;;;21.50;;
28822;SDS011;15961;54.678;9.110;2024-03-02T03:50:17;54.63;;;22.10;;
28822;SDS011;15961;54.678;9.110;2024-03-02T03:53:02;47.08;;;17.52;;
28822;SDS011;15961;54.678;9.110;2024-03-02T03:55:48;53.13;;;20.90;;
28822;SDS011;15961;54.678;9.110;2024-03-02T03:58:36;58.83;;;22.88;;
28822;SDS011;15961;54.678;9.110;2024-03-02T04:01:22;56.75;;;21.63;;
28822;SDS011;15961;54.678;9.110;2024-03-02T04:04:08;54.42;;;20.80;;
28822;SDS011;15961;54.678;9.110;2024-03-02T04:06:53;55.60;;;20.25;;
28822;SDS011;15961;54.678;9.110;2024-03-02T04:09:39;56.13;;;20.58;;
28822;SDS011;15961;54.678;9.110;2024-03-02T04:12:25;60.33;;;21.40;;
28822;SDS011;15961;54.678;9.110;2024-03-02T04:15:10;56.63;;;19.92;;
28822;SDS011;15961;54.678;9.110;2024-03-02T04:17:56;60.17;;;20.98;;
28822;SDS011;15961;54.678;9.110;2024-03-02T04:20:41;53.47;;;21.85;;
28822;SDS011;15961;54.678;9.110;2024-03-02T04:23:27;58.60;;;20.95;;
28822;SDS011;15961;54.678;9.110;2024-03-02T04:26:13;58.35;;;23.13;;
28822;SDS011;15961;54.678;9.110;2024-03-02T04:29:00;58.22;;;22.75;;
28822;SDS011;15961;54.678;9.110;2024-03-02T04:31:45;61.70;;;21.38;;
28822;SDS011;15961;54.678;9.110;2024-03-02T04:34:31;64.30;;;22.00;;
28822;SDS011;15961;54.678;9.110;2024-03-02T04:37:17;60.47;;;22.42;;
28822;SDS011;15961;54.678;9.110;2024-03-02T04:40:02;56.85;;;22.15;;
28822;SDS011;15961;54.678;9.110;2024-03-02T04:42:48;56.58;;;22.77;;
28822;SDS011;15961;54.678;9.110;2024-03-02T04:45:34;51.90;;;23.85;;
28822;SDS011;15961;54.678;9.110;2024-03-02T04:48:20;52.47;;;21.10;;
28822;SDS011;15961;54.678;9.110;2024-03-02T04:51:07;59.25;;;21.98;;
28822;SDS011;15961;54.678;9.110;2024-03-02T04:53:53;56.30;;;21.65;;
28822;SDS011;15961;54.678;9.110;2024-03-02T04:56:38;60.38;;;21.23;;
28822;SDS011;15961;54.678;9.110;2024-03-02T04:59:29;60.72;;;20.98;;
28822;SDS011;15961;54.678;9.110;2024-03-02T05:02:16;53.13;;;21.63;;
28822;SDS011;15961;54.678;9.110;2024-03-02T05:05:01;57.13;;;21.48;;
28822;SDS011;15961;54.678;9.110;2024-03-02T05:07:48;56.17;;;21.63;;
28822;SDS011;15961;54.678;9.110;2024-03-02T05:10:33;58.22;;;22.02;;
28822;SDS011;15961;54.678;9.110;2024-03-02T05:13:19;55.92;;;22.38;;
28822;SDS011;15961;54.678;9.110;2024-03-02T05:16:06;60.40;;;22.25;;
28822;SDS011;15961;54.678;9.110;2024-03-02T05:18:51;51.60;;;20.40;;
28822;SDS011;15961;54.678;9.110;2024-03-02T05:21:37;56.17;;;20.13;;
28822;SDS011;15961;54.678;9.110;2024-03-02T05:24:23;57.80;;;21.73;;
28822;SDS011;15961;54.678;9.110;2024-03-02T05:27:09;51.78;;;19.70;;
28822;SDS011;15961;54.678;9.110;2024-03-02T05:29:54;61.30;;;22.67;;
28822;SDS011;15961;54.678;9.110;2024-03-02T05:32:40;53.60;;;19.83;;
28822;SDS011;15961;54.678;9.110;2024-03-02T05:35:26;53.88;;;20.08;;
28822;SDS011;15961;54.678;9.110;2024-03-02T05:38:11;52.30;;;22.25;;
28822;SDS011;15961;54.678;9.110;2024-03-02T05:40:57;56.67;;;20.58;;
28822;SDS011;15961;54.678;9.110;2024-03-02T05:43:42;48.10;;;20.83;;
28822;SDS011;15961;54.678;9.110;2024-03-02T05:46:28;56.80;;;18.00;;
28822;SDS011;15961;54.678;9.110;2024-03-02T05:49:14;47.47;;;18.52;;
28822;SDS011;15961;54.678;9.110;2024-03-02T05:51:59;51.42;;;19.42;;
28822;SDS011;15961;54.678;9.110;2024-03-02T05:54:45;55.50;;;21.73;;
28822;SDS011;15961;54.678;9.110;2024-03-02T05:57:31;47.97;;;18.23;;
28822;SDS011;15961;54.678;9.110;2024-03-02T06:00:28;50.58;;;19.30;;
28822;SDS011;15961;54.678;9.110;2024-03-02T06:03:16;50.80;;;21.83;;
28822;SDS011;15961;54.678;9.110;2024-03-02T06:06:01;57.67;;;21.15;;
28822;SDS011;15961;54.678;9.110;2024-03-02T06:08:47;53.70;;;21.17;;
28822;SDS011;15961;54.678;9.110;2024-03-02T06:11:36;52.90;;;20.20;;
28822;SDS011;15961;54.678;9.110;2024-03-02T06:14:22;53.97;;;20.52;;
28822;SDS011;15961;54.678;9.110;2024-03-02T06:17:07;51.08;;;19.98;;
28822;SDS011;15961;54.678;9.110;2024-03-02T06:19:53;54.42;;;20.63;;
28822;SDS011;15961;54.678;9.110;2024-03-02T06:22:39;49.63;;;19.65;;
28822;SDS011;15961;54.678;9.110;2024-03-02T06:25:24;57.83;;;23.08;;
28822;SDS011;15961;54.678;9.110;2024-03-02T06:28:10;51.58;;;20.98;;
28822;SDS011;15961;54.678;9.110;2024-03-02T06:30:56;52.58;;;23.73;;
28822;SDS011;15961;54.678;9.110;2024-03-02T06:33:41;58.10;;;21.52;;
28822;SDS011;15961;54.678;9.110;2024-03-02T06:36:27;50.10;;;21.00;;
28822;SDS011;15961;54.678;9.110;2024-03-02T06:39:12;49.97;;;21.83;;
28822;SDS011;15961;54.678;9.110;2024-03-02T06:41:58;57.83;;;21.38;;
28822;SDS011;15961;54.678;9.110;2024-03-02T06:44:44;60.80;;;22.05;;
28822;SDS011;15961;54.678;9.110;2024-03-02T06:47:29;58.47;;;21.90;;
28822;SDS011;15961;54.678;9.110;2024-03-02T06:50:15;61.13;;;23.63;;
28822;SDS011;15961;54.678;9.110;2024-03-02T06:53:01;63.03;;;24.15;;
28822;SDS011;15961;54.678;9.110;2024-03-02T06:55:49;58.80;;;24.13;;
28822;SDS011;15961;54.678;9.110;2024-03-02T06:58:35;59.13;;;21.60;;
28822;SDS011;15961;54.678;9.110;2024-03-02T07:01:20;62.25;;;22.27;;
28822;SDS011;15961;54.678;9.110;2024-03-02T07:04:06;57.72;;;22.70;;
28822;SDS011;15961;54.678;9.110;2024-03-02T07:06:52;62.45;;;21.40;;
28822;SDS011;15961;54.678;9.110;2024-03-02T07:09:37;65.43;;;25.23;;
28822;SDS011;15961;54.678;9.110;2024-03-02T07:12:23;57.53;;;21.98;;
28822;SDS011;15961;54.678;9.110;2024-03-02T07:15:09;54.03;;;19.58;;
28822;SDS011;15961;54.678;9.110;2024-03-02T07:18:14;70.88;;;24.58;;
28822;SDS011;15961;54.678;9.110;2024-03-02T07:21:00;58.97;;;23.45;;
28822;SDS011;15961;54.678;9.110;2024-03-02T07:23:46;60.25;;;23.48;;
28822;SDS011;15961;54.678;9.110;2024-03-02T07:26:32;62.63;;;21.70;;
28822;SDS011;15961;54.678;9.110;2024-03-02T07:29:17;56.00;;;21.35;;
28822;SDS011;15961;54.678;9.110;2024-03-02T07:32:03;54.70;;;23.08;;
28822;SDS011;15961;54.678;9.110;2024-03-02T07:34:49;67.93;;;24.30;;
28822;SDS011;15961;54.678;9.110;2024-03-02T07:37:36;63.17;;;25.13;;
28822;SDS011;15961;54.678;9.110;2024-03-02T07:40:21;59.05;;;21.40;;
28822;SDS011;15961;54.678;9.110;2024-03-02T07:43:09;63.70;;;24.02;;
28822;SDS011;15961;54.678;9.110;2024-03-02T07:45:54;58.88;;;24.20;;
28822;SDS011;15961;54.678;9.110;2024-03-02T07:48:41;77.00;;;24.63;;
28822;SDS011;15961;54.678;9.110;2024-03-02T07:51:27;57.75;;;24.08;;
28822;SDS011;15961;54.678;9.110;2024-03-02T07:54:13;67.35;;;24.02;;
28822;SDS011;15961;54.678;9.110;2024-03-02T07:56:58;59.65;;;23.77;;
28822;SDS011;15961;54.678;9.110;2024-03-02T07:59:45;70.43;;;26.70;;
28822;SDS011;15961;54.678;9.110;2024-03-02T08:02:30;64.05;;;25.88;;
28822;SDS011;15961;54.678;9.110;2024-03-02T08:05:16;66.93;;;24.63;;
28822;SDS011;15961;54.678;9.110;2024-03-02T08:08:04;56.08;;;22.77;;
28822;SDS011;15961;54.678;9.110;2024-03-02T08:10:50;56.17;;;22.70;;
28822;SDS011;15961;54.678;9.110;2024-03-02T08:13:36;49.38;;;19.45;;
28822;SDS011;15961;54.678;9.110;2024-03-02T08:16:22;52.08;;;21.15;;
28822;SDS011;15961;54.678;9.110;2024-03-02T08:19:08;52.72;;;22.30;;
28822;SDS011;15961;54.678;9.110;2024-03-02T08:21:54;60.28;;;23.75;;
28822;SDS011;15961;54.678;9.110;2024-03-02T08:24:40;51.72;;;22.30;;
28822;SDS011;15961;54.678;9.110;2024-03-02T08:27:26;52.92;;;22.35;;
28822;SDS011;15961;54.678;9.110;2024-03-02T08:30:12;54.90;;;22.88;;
28822;SDS011;15961;54.678;9.110;2024-03-02T08:32:57;54.13;;;20.15;;
28822;SDS011;15961;54.678;9.110;2024-03-02T08:35:43;49.15;;;20.17;;
28822;SDS011;15961;54.678;9.110;2024-03-02T08:38:29;48.20;;;21.13;;
28822;SDS011;15961;54.678;9.110;2024-03-02T08:41:15;47.10;;;20.38;;
28822;SDS011;15961;54.678;9.110;2024-03-02T08:44:01;54.47;;;20.83;;
28822;SDS011;15961;54.678;9.110;2024-03-02T08:46:47;52.15;;;20.23;;
28822;SDS011;15961;54.678;9.110;2024-03-02T08:49:32;43.13;;;17.70;;
28822;SDS011;15961;54.678;9.110;2024-03-02T08:52:18;45.90;;;20.50;;
28822;SDS011;15961;54.678;9.110;2024-03-02T08:55:04;48.97;;;19.70;;
28822;SDS011;15961;54.678;9.110;2024-03-02T08:57:50;46.38;;;19.00;;
28822;SDS011;15961;54.678;9.110;2024-03-02T09:00:36;50.85;;;19.75;;
28822;SDS011;15961;54.678;9.110;2024-03-02T09:03:22;48.33;;;19.25;;
28822;SDS011;15961;54.678;9.110;2024-03-02T09:06:07;48.15;;;19.85;;
28822;SDS011;15961;54.678;9.110;2024-03-02T09:08:53;58.63;;;21.38;;
28822;SDS011;15961;54.678;9.110;2024-03-02T09:11:38;47.95;;;19.35;;
28822;SDS011;15961;54.678;9.110;2024-03-02T09:14:24;43.97;;;17.48;;
28822;SDS011;15961;54.678;9.110;2024-03-02T09:17:10;36.65;;;16.35;;
28822;SDS011;15961;54.678;9.110;2024-03-02T09:19:56;41.22;;;16.83;;
28822;SDS011;15961;54.678;9.110;2024-03-02T09:22:42;40.75;;;16.90;;
28822;SDS011;15961;54.678;9.110;2024-03-02T09:25:28;36.65;;;17.63;;
28822;SDS011;15961;54.678;9.110;2024-03-02T09:28:15;40.05;;;18.65;;
28822;SDS011;15961;54.678;9.110;2024-03-02T09:31:01;35.42;;;16.20;;
28822;SDS011;15961;54.678;9.110;2024-03-02T09:33:46;34.10;;;16.45;;
28822;SDS011;15961;54.678;9.110;2024-03-02T09:36:32;32.47;;;16.50;;
28822;SDS011;15961;54.678;9.110;2024-03-02T09:39:17;38.50;;;17.25;;
28822;SDS011;15961;54.678;9.110;2024-03-02T09:42:03;32.97;;;15.77;;
28822;SDS011;15961;54.678;9.110;2024-03-02T09:44:49;31.95;;;15.18;;
28822;SDS011;15961;54.678;9.110;2024-03-02T09:47:35;32.38;;;15.05;;
28822;SDS011;15961;54.678;9.110;2024-03-02T09:50:21;38.10;;;14.50;;
28822;SDS011;15961;54.678;9.110;2024-03-02T09:53:07;34.72;;;16.85;;
28822;SDS011;15961;54.678;9.110;2024-03-02T09:55:53;34.65;;;16.20;;
28822;SDS011;15961;54.678;9.110;2024-03-02T09:58:39;33.97;;;16.40;;
28822;SDS011;15961;54.678;9.110;2024-03-02T10:01:24;38.75;;;15.98;;
28822;SDS011;15961;54.678;9.110;2024-03-02T10:04:10;34.55;;;15.07;;
28822;SDS011;15961;54.678;9.110;2024-03-02T10:07:13;35.67;;;14.32;;
28822;SDS011;15961;54.678;9.110;2024-03-02T10:13:03;37.42;;;16.23;;
28822;SDS011;15961;54.678;9.110;2024-03-02T10:15:50;31.42;;;14.30;;
28822;SDS011;15961;54.678;9.110;2024-03-02T10:18:36;32.55;;;15.02;;
28822;SDS011;15961;54.678;9.110;2024-03-02T10:21:21;34.30;;;15.00;;
28822;SDS011;15961;54.678;9.110;2024-03-02T10:24:09;33.58;;;15.65;;
28822;SDS011;15961;54.678;9.110;2024-03-02T10:26:55;36.17;;;16.58;;
28822;SDS011;15961;54.678;9.110;2024-03-02T10:29:42;31.95;;;15.18;;
28822;SDS011;15961;54.678;9.110;2024-03-02T10:32:27;32.72;;;14.93;;
28822;SDS011;15961;54.678;9.110;2024-03-02T10:35:13;29.17;;;13.57;;
28822;SDS011;15961;54.678;9.110;2024-03-02T10:37:59;34.08;;;14.85;;
28822;SDS011;15961;54.678;9.110;2024-03-02T10:40:48;34.10;;;16.00;;
28822;SDS011;15961;54.678;9.110;2024-03-02T10:43:34;26.77;;;13.70;;
28822;SDS011;15961;54.678;9.110;2024-03-02T10:46:20;25.70;;;13.10;;
28822;SDS011;15961;54.678;9.110;2024-03-02T10:49:05;31.58;;;13.65;;
28822;SDS011;15961;54.678;9.110;2024-03-02T10:51:51;25.63;;;12.60;;
28822;SDS011;15961;54.678;9.110;2024-03-02T10:54:37;23.27;;;13.93;;
28822;SDS011;15961;54.678;9.110;2024-03-02T10:57:25;27.00;;;13.50;;
28822;SDS011;15961;54.678;9.110;2024-03-02T11:00:12;32.63;;;14.48;;
28822;SDS011;15961;54.678;9.110;2024-03-02T11:03:04;28.45;;;13.10;;
28822;SDS011;15961;54.678;9.110;2024-03-02T11:05:57;26.15;;;13.13;;
28822;SDS011;15961;54.678;9.110;2024-03-02T11:08:43;29.80;;;11.90;;
28822;SDS011;15961;54.678;9.110;2024-03-02T11:11:31;25.23;;;12.80;;
28822;SDS011;15961;54.678;9.110;2024-03-02T11:14:21;27.42;;;14.55;;
28822;SDS011;15961;54.678;9.110;2024-03-02T11:17:08;31.33;;;15.70;;
28822;SDS011;15961;54.678;9.110;2024-03-02T11:19:54;29.92;;;12.30;;
28822;SDS011;15961;54.678;9.110;2024-03-02T11:22:40;30.55;;;13.43;;
28822;SDS011;15961;54.678;9.110;2024-03-02T11:25:27;29.20;;;12.65;;
28822;SDS011;15961;54.678;9.110;2024-03-02T11:28:13;24.88;;;12.90;;
28822;SDS011;15961;54.678;9.110;2024-03-02T11:30:58;28.70;;;14.05;;
28822;SDS011;15961;54.678;9.110;2024-03-02T11:33:44;25.48;;;11.32;;
28822;SDS011;15961;54.678;9.110;2024-03-02T11:36:30;28.58;;;12.20;;
28822;SDS011;15961;54.678;9.110;2024-03-02T11:39:16;23.30;;;10.18;;
28822;SDS011;15961;54.678;9.110;2024-03-02T11:42:02;24.75;;;11.10;;
28822;SDS011;15961;54.678;9.110;2024-03-02T11:44:48;21.02;;;10.77;;
28822;SDS011;15961;54.678;9.110;2024-03-02T11:47:34;19.52;;;10.88;;
28822;SDS011;15961;54.678;9.110;2024-03-02T11:53:14;22.52;;;11.00;;
28822;SDS011;15961;54.678;9.110;2024-03-02T11:55:59;23.85;;;11.30;;
28822;SDS011;15961;54.678;9.110;2024-03-02T11:58:47;22.00;;;10.82;;
28822;SDS011;15961;54.678;9.110;2024-03-02T12:01:34;22.98;;;10.55;;
28822;SDS011;15961;54.678;9.110;2024-03-02T12:04:21;18.73;;;10.27;;
28822;SDS011;15961;54.678;9.110;2024-03-02T12:07:09;22.05;;;9.10;;
28822;SDS011;15961;54.678;9.110;2024-03-02T12:10:01;19.77;;;10.32;;
28822;SDS011;15961;54.678;9.110;2024-03-02T12:12:48;22.83;;;11.57;;
28822;SDS011;15961;54.678;9.110;2024-03-02T12:15:40;19.40;;;9.20;;
28822;SDS011;15961;54.678;9.110;2024-03-02T12:18:26;15.55;;;9.23;;
28822;SDS011;15961;54.678;9.110;2024-03-02T12:21:12;20.35;;;9.38;;
28822;SDS011;15961;54.678;9.110;2024-03-02T12:23:57;20.25;;;9.80;;
28822;SDS011;15961;54.678;9.110;2024-03-02T12:26:43;21.45;;;10.35;;
28822;SDS011;15961;54.678;9.110;2024-03-02T12:29:29;16.88;;;9.30;;
28822;SDS011;15961;54.678;9.110;2024-03-02T12:32:14;19.08;;;9.73;;
28822;SDS011;15961;54.678;9.110;2024-03-02T12:35:00;16.67;;;9.52;;
28822;SDS011;15961;54.678;9.110;2024-03-02T12:37:46;19.13;;;9.07;;
28822;SDS011;15961;54.678;9.110;2024-03-02T12:40:33;24.45;;;18.40;;
28822;SDS011;15961;54.678;9.110;2024-03-02T12:43:18;29.60;;;17.67;;
28822;SDS011;15961;54.678;9.110;2024-03-02T12:46:04;16.13;;;9.57;;
28822;SDS011;15961;54.678;9.110;2024-03-02T12:48:50;15.55;;;9.35;;
28822;SDS011;15961;54.678;9.110;2024-03-02T12:51:37;15.82;;;9.10;;
28822;SDS011;15961;54.678;9.110;2024-03-02T12:54:23;17.13;;;9.35;;
28822;SDS011;15961;54.678;9.110;2024-03-02T12:57:10;16.10;;;7.38;;
28822;SDS011;15961;54.678;9.110;2024-03-02T12:59:59;15.05;;;7.20;;
28822;SDS011;15961;54.678;9.110;2024-03-02T13:02:45;13.55;;;7.53;;
28822;SDS011;15961;54.678;9.110;2024-03-02T13:05:31;13.85;;;7.45;;
28822;SDS011;15961;54.678;9.110;2024-03-02T13:08:17;13.60;;;7.50;;
28822;SDS011;15961;54.678;9.110;2024-03-02T13:11:03;12.32;;;7.47;;
28822;SDS011;15961;54.678;9.110;2024-03-02T13:13:52;14.70;;;7.00;;
28822;SDS011;15961;54.678;9.110;2024-03-02T13:16:38;16.48;;;11.05;;
28822;SDS011;15961;54.678;9.110;2024-03-02T13:25:01;20.58;;;9.73;;
28822;SDS011;15961;54.678;9.110;2024-03-02T13:27:49;19.30;;;10.35;;
28822;SDS011;15961;54.678;9.110;2024-03-02T13:30:34;19.73;;;10.80;;
28822;SDS011;15961;54.678;9.110;2024-03-02T13:33:20;16.92;;;9.90;;
28822;SDS011;15961;54.678;9.110;2024-03-02T13:36:07;20.05;;;10.70;;
28822;SDS011;15961;54.678;9.110;2024-03-02T13:38:53;17.38;;;9.68;;
28822;SDS011;15961;54.678;9.110;2024-03-02T13:41:39;18.25;;;10.25;;
28822;SDS011;15961;54.678;9.110;2024-03-02T13:44:24;21.50;;;13.32;;
28822;SDS011;15961;54.678;9.110;2024-03-02T13:47:10;22.50;;;10.52;;
28822;SDS011;15961;54.678;9.110;2024-03-02T13:49:57;19.90;;;10.77;;
28822;SDS011;15961;54.678;9.110;2024-03-02T13:52:43;20.25;;;11.07;;
28822;SDS011;15961;54.678;9.110;2024-03-02T13:55:29;21.35;;;11.57;;
28822;SDS011;15961;54.678;9.110;2024-03-02T13:58:14;19.25;;;10.07;;
28822;SDS011;15961;54.678;9.110;2024-03-02T14:01:00;19.58;;;10.93;;
28822;SDS011;15961;54.678;9.110;2024-03-02T14:03:46;25.13;;;11.43;;
28822;SDS011;15961;54.678;9.110;2024-03-02T14:06:32;19.02;;;11.38;;
28822;SDS011;15961;54.678;9.110;2024-03-02T14:09:18;19.17;;;10.68;;
28822;SDS011;15961;54.678;9.110;2024-03-02T14:12:05;19.33;;;11.55;;
28822;SDS011;15961;54.678;9.110;2024-03-02T14:14:51;16.30;;;9.35;;
28822;SDS011;15961;54.678;9.110;2024-03-02T14:17:40;19.20;;;9.88;;
28822;SDS011;15961;54.678;9.110;2024-03-02T14:20:26;19.98;;;8.43;;
28822;SDS011;15961;54.678;9.110;2024-03-02T14:23:12;13.88;;;8.43;;
28822;SDS011;15961;54.678;9.110;2024-03-02T14:25:57;20.50;;;9.85;;
28822;SDS011;15961;54.678;9.110;2024-03-02T14:28:44;18.15;;;8.60;;
28822;SDS011;15961;54.678;9.110;2024-03-02T14:31:30;20.80;;;9.80;;
28822;SDS011;15961;54.678;9.110;2024-03-02T14:34:18;18.30;;;9.50;;
28822;SDS011;15961;54.678;9.110;2024-03-02T14:37:04;16.45;;;9.38;;
28822;SDS011;15961;54.678;9.110;2024-03-02T14:39:50;15.57;;;8.55;;
28822;SDS011;15961;54.678;9.110;2024-03-02T14:42:36;18.67;;;9.50;;
28822;SDS011;15961;54.678;9.110;2024-03-02T14:45:21;18.38;;;9.88;;
28822;SDS011;15961;54.678;9.110;2024-03-02T14:48:09;18.88;;;10.70;;
28822;SDS011;15961;54.678;9.110;2024-03-02T14:50:54;20.63;;;9.18;;
28822;SDS011;15961;54.678;9.110;2024-03-02T14:53:40;21.48;;;11.48;;
28822;SDS011;15961;54.678;9.110;2024-03-02T14:56:26;17.30;;;10.25;;
28822;SDS011;15961;54.678;9.110;2024-03-02T14:59:11;19.98;;;10.00;;
28822;SDS011;15961;54.678;9.110;2024-03-02T15:01:57;18.15;;;9.40;;
28822;SDS011;15961;54.678;9.110;2024-03-02T15:04:43;17.67;;;9.05;;
28822;SDS011;15961;54.678;9.110;2024-03-02T15:07:30;21.60;;;9.45;;
28822;SDS011;15961;54.678;9.110;2024-03-02T15:10:16;16.58;;;8.95;;
28822;SDS011;15961;54.678;9.110;2024-03-02T15:13:02;17.73;;;9.43;;
28822;SDS011;15961;54.678;9.110;2024-03-02T15:15:48;20.13;;;9.35;;
28822;SDS011;15961;54.678;9.110;2024-03-02T15:18:34;18.02;;;8.77;;
28822;SDS011;15961;54.678;9.110;2024-03-02T15:21:20;14.25;;;8.98;;
28822;SDS011;15961;54.678;9.110;2024-03-02T15:24:05;20.35;;;9.45;;
28822;SDS011;15961;54.678;9.110;2024-03-02T15:26:51;16.25;;;9.65;;
28822;SDS011;15961;54.678;9.110;2024-03-02T15:29:38;17.35;;;9.55;;
28822;SDS011;15961;54.678;9.110;2024-03-02T15:32:24;18.30;;;10.07;;
28822;SDS011;15961;54.678;9.110;2024-03-02T15:35:11;15.43;;;9.80;;
28822;SDS011;15961;54.678;9.110;2024-03-02T15:37:57;20.85;;;10.23;;
28822;SDS011;15961;54.678;9.110;2024-03-02T15:40:43;18.27;;;9.80;;
28822;SDS011;15961;54.678;9.110;2024-03-02T15:43:28;18.48;;;10.18;;
28822;SDS011;15961;54.678;9.110;2024-03-02T15:46:16;21.05;;;10.93;;
28822;SDS011;15961;54.678;9.110;2024-03-02T15:49:01;17.88;;;10.57;;
28822;SDS011;15961;54.678;9.110;2024-03-02T15:51:47;19.88;;;11.75;;
28822;SDS011;15961;54.678;9.110;2024-03-02T15:54:33;21.60;;;11.98;;
28822;SDS011;15961;54.678;9.110;2024-03-02T15:57:19;22.58;;;12.38;;
28822;SDS011;15961;54.678;9.110;2024-03-02T16:00:05;19.88;;;11.20;;
28822;SDS011;15961;54.678;9.110;2024-03-02T16:02:52;19.73;;;11.95;;
28822;SDS011;15961;54.678;9.110;2024-03-02T16:05:37;21.55;;;10.80;;
28822;SDS011;15961;54.678;9.110;2024-03-02T16:08:23;19.38;;;10.15;;
28822;SDS011;15961;54.678;9.110;2024-03-02T16:11:08;23.65;;;10.98;;
28822;SDS011;15961;54.678;9.110;2024-03-02T16:13:54;19.67;;;10.43;;
28822;SDS011;15961;54.678;9.110;2024-03-02T16:16:40;18.92;;;10.35;;
28822;SDS011;15961;54.678;9.110;2024-03-02T16:19:25;23.02;;;11.60;;
28822;SDS011;15961;54.678;9.110;2024-03-02T16:22:11;20.88;;;11.82;;
28822;SDS011;15961;54.678;9.110;2024-03-02T16:24:57;18.92;;;11.25;;
28822;SDS011;15961;54.678;9.110;2024-03-02T16:27:42;18.73;;;10.02;;
28822;SDS011;15961;54.678;9.110;2024-03-02T16:30:28;19.58;;;9.77;;
28822;SDS011;15961;54.678;9.110;2024-03-02T16:33:14;21.35;;;10.75;;